Time;durP1;ratioP1;P1;durP2;ratioP2;P2;SDS_P1;SDS_P2;PMS_P1;PMS_P2;Temp;Humidity;BMP_temperature;BMP_pressure;BME280_temperature;BME280_humidity;BME280_pressure;Samples;Min_cycle;Max_cycle;Signal;HPM_P1;HPM_P2
2023/12/09 00:00:45;;;;;;;24.35;8.77;;;7.00;99.10;;;;;;5026820;28;20029;-77
2023/12/09 00:03:11;;;;;;;33.13;10.73;;;7.00;99.10;;;;;;5037865;28;20036;-77
2023/12/09 00:05:37;;;;;;;25.52;8.73;;;7.00;99.10;;;;;;5040033;28;20040;-77
2023/12/09 00:08:02;;;;;;;30.83;8.88;;;7.00;99.10;;;;;;5036612;28;20045;-77
2023/12/09 00:10:28;;;;;;;25.50;9.05;;;7.00;99.10;;;;;;5044793;28;20033;-77
2023/12/09 00:12:54;;;;;;;37.45;10.40;;;7.00;99.00;;;;;;5040430;28;20035;-77
2023/12/09 00:15:20;;;;;;;36.75;10.10;;;7.00;99.00;;;;;;5036378;28;20098;-77
2023/12/09 00:17:46;;;;;;;30.40;9.35;;;7.10;99.00;;;;;;5038645;28;20029;-75
2023/12/09 00:20:12;;;;;;;25.77;8.48;;;7.10;99.00;;;;;;5040976;28;20132;-75
2023/12/09 00:22:38;;;;;;;24.52;8.60;;;7.10;99.00;;;;;;5036854;28;20123;-78
2023/12/09 00:25:06;;;;;;;28.20;9.32;;;7.10;99.00;;;;;;5050570;28;20477;-77
2023/12/09 00:27:32;;;;;;;36.47;9.73;;;7.10;99.00;;;;;;5034634;28;20512;-77
2023/12/09 00:29:57;;;;;;;26.42;8.07;;;7.10;98.90;;;;;;5038059;28;20478;-77
2023/12/09 00:32:23;;;;;;;28.02;8.20;;;7.10;98.90;;;;;;5029728;28;20024;-77
2023/12/09 00:34:49;;;;;;;30.08;8.18;;;7.10;98.90;;;;;;5044414;28;20438;-77
2023/12/09 00:37:14;;;;;;;32.20;8.95;;;7.10;98.80;;;;;;5038168;28;20029;-77
2023/12/09 00:39:40;;;;;;;28.05;9.50;;;7.10;98.70;;;;;;5038303;28;20052;-77
2023/12/09 00:42:06;;;;;;;26.05;7.93;;;7.10;98.60;;;;;;5036845;28;20024;-77
2023/12/09 00:44:31;;;;;;;29.58;7.90;;;7.10;98.60;;;;;;5042661;28;20471;-78
2023/12/09 00:46:57;;;;;;;23.75;8.13;;;7.10;98.60;;;;;;5038278;28;20531;-78
2023/12/09 00:49:23;;;;;;;25.02;8.27;;;7.00;98.50;;;;;;5037574;28;20025;-77
2023/12/09 00:51:49;;;;;;;25.55;9.10;;;7.00;98.50;;;;;;5038215;28;20083;-76
2023/12/09 00:54:14;;;;;;;21.25;8.10;;;7.00;98.50;;;;;;5035693;28;20433;-77
2023/12/09 00:56:40;;;;;;;34.25;8.63;;;7.00;98.50;;;;;;5035688;28;20037;-77
2023/12/09 00:59:07;;;;;;;25.73;9.25;;;6.90;98.50;;;;;;5041454;28;20040;-77
2023/12/09 01:01:33;;;;;;;31.88;10.50;;;7.00;98.60;;;;;;5035471;28;20052;-77
2023/12/09 01:04:00;;;;;;;29.67;8.63;;;6.90;98.60;;;;;;5039355;28;20305;-75
2023/12/09 01:06:27;;;;;;;29.75;8.82;;;6.90;98.70;;;;;;5038386;28;20755;-78
2023/12/09 01:08:52;;;;;;;28.08;9.38;;;6.90;98.70;;;;;;5035797;28;20024;-77
2023/12/09 01:11:18;;;;;;;26.88;8.07;;;6.80;98.70;;;;;;5037113;28;20149;-77
2023/12/09 01:13:44;;;;;;;27.00;9.00;;;6.80;98.60;;;;;;5040517;28;20537;-75
2023/12/09 01:16:10;;;;;;;22.58;7.78;;;6.80;98.70;;;;;;5038967;28;20030;-75
2023/12/09 01:18:36;;;;;;;29.38;8.65;;;6.80;98.70;;;;;;5041466;28;20099;-76
2023/12/09 01:21:01;;;;;;;20.55;7.50;;;6.80;98.70;;;;;;5036025;28;20137;-76
2023/12/09 01:23:27;;;;;;;25.95;9.30;;;6.70;98.60;;;;;;5044029;28;20029;-76
2023/12/09 01:25:53;;;;;;;27.42;8.57;;;6.70;98.60;;;;;;5043258;28;20143;-76
2023/12/09 01:28:18;;;;;;;25.48;7.78;;;6.60;98.60;;;;;;5038055;28;20032;-75
2023/12/09 01:30:44;;;;;;;27.17;8.25;;;6.60;98.60;;;;;;5042126;28;20029;-76
2023/12/09 01:33:10;;;;;;;26.20;8.45;;;6.60;98.70;;;;;;5045349;28;20060;-76
2023/12/09 01:35:35;;;;;;;35.95;8.27;;;6.60;98.70;;;;;;5041176;28;20048;-76
2023/12/09 01:38:02;;;;;;;31.70;7.60;;;6.60;98.80;;;;;;5041408;28;20425;-75
2023/12/09 01:40:28;;;;;;;23.13;7.90;;;6.60;98.80;;;;;;5039298;28;20041;-76
2023/12/09 01:42:53;;;;;;;28.90;8.30;;;6.60;98.80;;;;;;5041491;28;20082;-76
2023/12/09 01:45:20;;;;;;;26.15;8.27;;;6.60;98.80;;;;;;5036627;28;20124;-76
2023/12/09 01:47:47;;;;;;;26.38;8.02;;;6.60;98.80;;;;;;5032831;28;20375;-76
2023/12/09 01:50:14;;;;;;;24.73;8.43;;;6.60;98.90;;;;;;5042770;28;20245;-76
2023/12/09 01:52:40;;;;;;;30.55;9.25;;;6.60;98.90;;;;;;5040656;28;20020;-75
2023/12/09 01:55:08;;;;;;;28.08;8.15;;;6.60;98.90;;;;;;5047035;28;20479;-75
2023/12/09 01:57:34;;;;;;;32.17;8.02;;;6.50;98.90;;;;;;5043366;28;20025;-76
2023/12/09 02:00:05;;;;;;;23.75;8.82;;;6.50;98.90;;;;;;5040948;28;20234;-76
2023/12/09 02:02:31;;;;;;;31.70;8.25;;;6.50;99.00;;;;;;5040586;28;20584;-76
2023/12/09 02:04:58;;;;;;;23.85;7.97;;;6.50;99.00;;;;;;5040840;28;20107;-76
2023/12/09 02:07:24;;;;;;;25.13;7.78;;;6.50;99.00;;;;;;5035244;28;20025;-76
2023/12/09 02:09:50;;;;;;;27.63;8.02;;;6.50;99.00;;;;;;5031540;28;20041;-75
2023/12/09 02:12:33;;;;;;;27.67;8.70;;;6.50;99.00;;;;;;5037332;28;20048;-76
2023/12/09 02:15:06;;;;;;;28.77;8.23;;;6.50;99.00;;;;;;5039911;28;20110;-75
2023/12/09 02:17:49;;;;;;;32.60;9.15;;;6.40;99.00;;;;;;5039235;28;20045;-75
2023/12/09 02:20:15;;;;;;;20.48;8.15;;;6.40;99.00;;;;;;5040148;28;20035;-75
2023/12/09 02:22:41;;;;;;;30.48;8.65;;;6.50;99.10;;;;;;5034245;28;20026;-78
2023/12/09 02:25:07;;;;;;;30.15;9.10;;;6.50;99.10;;;;;;5040016;28;20033;-75
2023/12/09 02:27:56;;;;;;;31.77;9.32;;;6.50;99.10;;;;;;5031025;28;20377;-75
2023/12/09 02:30:34;;;;;;;27.63;8.13;;;6.50;99.10;;;;;;5039404;28;20040;-74
2023/12/09 02:33:00;;;;;;;28.13;9.35;;;6.50;99.10;;;;;;5034573;28;20492;-75
2023/12/09 02:35:29;;;;;;;28.20;8.50;;;6.50;99.10;;;;;;5041130;28;20052;-77
2023/12/09 02:37:56;;;;;;;29.55;9.05;;;6.50;99.20;;;;;;5038136;28;20029;-77
2023/12/09 02:40:23;;;;;;;24.38;9.27;;;6.60;99.20;;;;;;5045415;28;20041;-77
2023/12/09 02:42:50;;;;;;;33.67;9.52;;;6.50;99.20;;;;;;5042282;28;20056;-77
2023/12/09 02:45:18;;;;;;;31.30;8.80;;;6.60;99.10;;;;;;5039609;28;20095;-77
2023/12/09 02:47:47;;;;;;;28.23;9.18;;;6.50;99.20;;;;;;5041831;28;20389;-77
2023/12/09 02:50:13;;;;;;;28.23;9.02;;;6.60;99.20;;;;;;5033691;28;20135;-77
2023/12/09 02:52:40;;;;;;;29.15;9.77;;;6.60;99.10;;;;;;5041240;28;20114;-77
2023/12/09 02:55:07;;;;;;;23.60;9.02;;;6.60;99.20;;;;;;5028278;28;20050;-77
2023/12/09 02:57:33;;;;;;;30.45;10.52;;;6.60;99.10;;;;;;5039485;28;20040;-77
2023/12/09 02:59:58;;;;;;;29.10;10.32;;;6.60;99.10;;;;;;5039153;28;20029;-77
2023/12/09 03:02:24;;;;;;;28.45;9.52;;;6.60;99.10;;;;;;5040572;28;20370;-77
2023/12/09 03:04:50;;;;;;;29.65;10.65;;;6.50;99.20;;;;;;5038179;28;20111;-77
2023/12/09 03:07:20;;;;;;;40.15;10.52;;;6.60;99.20;;;;;;5041263;28;20147;-77
2023/12/09 03:09:49;;;;;;;31.63;10.15;;;6.50;99.10;;;;;;5033317;28;20433;-77
2023/12/09 03:12:14;;;;;;;29.30;10.30;;;6.50;99.20;;;;;;5039398;28;20541;-77
2023/12/09 03:14:40;;;;;;;32.95;10.05;;;6.50;99.20;;;;;;5038789;28;20112;-78
2023/12/09 03:17:06;;;;;;;33.00;10.27;;;6.50;99.20;;;;;;5039198;28;20086;-77
2023/12/09 03:19:31;;;;;;;32.92;10.77;;;6.50;99.20;;;;;;5037558;28;20061;-77
2023/12/09 03:21:58;;;;;;;28.33;10.68;;;6.50;99.20;;;;;;5039540;28;20017;-77
2023/12/09 03:24:24;;;;;;;27.08;10.60;;;6.50;99.30;;;;;;5037540;28;20045;-76
2023/12/09 03:26:53;;;;;;;33.17;11.43;;;6.50;99.20;;;;;;5051474;28;20037;-76
2023/12/09 03:29:19;;;;;;;28.55;11.23;;;6.50;99.30;;;;;;5057558;28;20028;-75
2023/12/09 03:31:45;;;;;;;30.10;11.13;;;6.50;99.30;;;;;;5060284;28;20041;-75
2023/12/09 03:34:12;;;;;;;37.75;12.70;;;6.60;99.40;;;;;;5043982;28;20033;-76
2023/12/09 03:36:38;;;;;;;33.88;11.30;;;6.60;99.40;;;;;;5039749;28;20432;-75
2023/12/09 03:39:04;;;;;;;32.35;11.85;;;6.70;99.50;;;;;;5030776;28;20469;-75
2023/12/09 03:41:30;;;;;;;36.65;12.88;;;6.70;99.50;;;;;;5037211;28;20182;-75
2023/12/09 03:43:56;;;;;;;35.10;14.30;;;6.80;99.50;;;;;;5031917;28;20091;-75
2023/12/09 03:46:22;;;;;;;35.70;14.10;;;6.80;99.40;;;;;;5032011;28;20037;-75
2023/12/09 03:48:47;;;;;;;32.92;14.88;;;6.90;99.50;;;;;;5032210;28;20032;-75
2023/12/09 03:51:13;;;;;;;39.97;15.73;;;6.90;99.50;;;;;;5042200;28;20035;-77
2023/12/09 03:53:41;;;;;;;32.95;15.63;;;6.90;99.40;;;;;;5035317;28;20021;-77
2023/12/09 03:56:07;;;;;;;35.97;16.02;;;7.00;99.40;;;;;;5042155;28;20577;-77
2023/12/09 03:58:32;;;;;;;33.03;15.48;;;7.00;99.40;;;;;;5032359;28;20031;-77
2023/12/09 04:00:58;;;;;;;34.20;15.13;;;7.00;99.40;;;;;;5038428;28;20033;-77
2023/12/09 04:03:24;;;;;;;35.72;15.68;;;7.00;99.30;;;;;;5032249;28;20030;-77
2023/12/09 04:05:50;;;;;;;30.27;15.57;;;7.10;99.30;;;;;;5040393;28;20033;-77
2023/12/09 04:08:15;;;;;;;40.58;16.35;;;7.10;99.20;;;;;;5037201;28;20071;-77
2023/12/09 04:10:41;;;;;;;35.60;15.40;;;7.10;99.20;;;;;;5047623;28;20068;-77
2023/12/09 04:13:07;;;;;;;33.42;14.93;;;7.10;99.20;;;;;;5035503;28;20018;-77
2023/12/09 04:15:32;;;;;;;37.88;16.40;;;7.10;99.20;;;;;;5038946;28;20048;-77
2023/12/09 04:17:58;;;;;;;31.92;14.93;;;7.10;99.20;;;;;;5035725;28;20013;-77
2023/12/09 04:20:24;;;;;;;39.42;16.17;;;7.10;99.20;;;;;;5035817;28;20045;-77
2023/12/09 04:22:49;;;;;;;34.60;15.88;;;7.10;99.20;;;;;;5030264;28;20375;-77
2023/12/09 04:25:15;;;;;;;36.35;15.15;;;7.10;99.20;;;;;;5039063;28;20106;-78
2023/12/09 04:27:41;;;;;;;39.55;14.57;;;7.10;99.20;;;;;;5032018;28;20026;-75
2023/12/09 04:30:08;;;;;;;34.85;14.63;;;7.10;99.20;;;;;;5034013;28;20025;-75
2023/12/09 04:32:35;;;;;;;33.55;14.60;;;7.10;99.10;;;;;;5041205;28;20087;-76
2023/12/09 04:35:00;;;;;;;34.03;16.15;;;7.20;99.20;;;;;;5037007;28;20048;-76
2023/12/09 04:37:26;;;;;;;40.97;15.82;;;7.20;99.20;;;;;;5038825;28;20037;-76
2023/12/09 04:39:52;;;;;;;40.03;16.42;;;7.30;99.10;;;;;;5034460;28;20038;-76
2023/12/09 04:42:19;;;;;;;37.42;16.27;;;7.20;99.00;;;;;;5039499;28;20126;-75
2023/12/09 04:44:44;;;;;;;47.30;17.52;;;7.20;99.00;;;;;;5037948;28;20384;-76
2023/12/09 04:47:10;;;;;;;34.65;16.65;;;7.30;99.00;;;;;;5034835;28;20052;-76
2023/12/09 04:49:35;;;;;;;41.63;19.15;;;7.30;99.00;;;;;;5042608;28;20076;-76
2023/12/09 04:52:01;;;;;;;34.17;17.85;;;7.30;98.90;;;;;;5042082;28;20036;-76
2023/12/09 04:54:27;;;;;;;33.78;18.02;;;7.30;99.00;;;;;;5040682;28;20038;-76
2023/12/09 04:56:52;;;;;;;40.05;17.45;;;7.30;99.00;;;;;;5025563;28;20308;-76
2023/12/09 04:59:18;;;;;;;36.67;17.92;;;7.30;98.90;;;;;;5038414;28;20264;-76
2023/12/09 05:01:44;;;;;;;39.13;17.58;;;7.40;98.90;;;;;;5040804;28;20035;-75
2023/12/09 05:04:10;;;;;;;39.05;18.98;;;7.40;98.90;;;;;;5036652;28;20385;-76
2023/12/09 05:06:36;;;;;;;40.55;18.75;;;7.40;98.90;;;;;;5042568;28;20037;-76
2023/12/09 05:09:02;;;;;;;36.53;19.45;;;7.40;98.80;;;;;;5042352;28;20017;-76
2023/12/09 05:11:28;;;;;;;43.28;19.48;;;7.40;98.80;;;;;;5040016;28;20045;-76
2023/12/09 05:13:54;;;;;;;42.50;19.55;;;7.40;98.80;;;;;;5037114;28;20583;-76
2023/12/09 05:16:19;;;;;;;45.55;20.30;;;7.40;98.90;;;;;;5038230;28;20095;-76
2023/12/09 05:18:45;;;;;;;49.00;20.73;;;7.50;98.90;;;;;;5031392;28;20514;-77
2023/12/09 05:21:12;;;;;;;50.13;21.23;;;7.40;98.90;;;;;;5038601;28;20028;-77
2023/12/09 05:23:38;;;;;;;43.97;20.92;;;7.50;98.90;;;;;;5037882;28;20024;-77
2023/12/09 05:26:03;;;;;;;52.60;22.42;;;7.50;99.00;;;;;;5040718;28;20113;-77
2023/12/09 05:28:30;;;;;;;43.72;24.02;;;7.50;99.00;;;;;;5041807;28;20083;-77
2023/12/09 05:30:56;;;;;;;49.60;24.00;;;7.50;98.90;;;;;;5037885;28;20037;-77
2023/12/09 05:33:22;;;;;;;48.03;24.92;;;7.60;98.90;;;;;;5037816;28;20410;-77
2023/12/09 05:35:48;;;;;;;48.92;24.80;;;7.60;98.90;;;;;;5036682;28;20293;-75
2023/12/09 05:38:14;;;;;;;45.50;25.48;;;7.60;98.90;;;;;;5034401;28;20112;-76
2023/12/09 05:40:39;;;;;;;55.08;27.05;;;7.60;98.80;;;;;;5045665;28;20136;-75
2023/12/09 05:43:05;;;;;;;50.00;26.33;;;7.60;98.80;;;;;;5036264;28;20022;-76
2023/12/09 05:45:31;;;;;;;46.40;26.17;;;7.60;98.80;;;;;;5035558;28;20095;-76
2023/12/09 05:47:57;;;;;;;42.42;25.98;;;7.60;98.80;;;;;;5042709;28;20017;-75
2023/12/09 05:50:23;;;;;;;54.72;27.65;;;7.60;98.80;;;;;;5040649;28;20123;-75
2023/12/09 05:52:48;;;;;;;46.35;25.33;;;7.60;98.70;;;;;;5037222;28;20409;-75
2023/12/09 05:55:16;;;;;;;45.70;24.00;;;7.60;98.70;;;;;;5037482;28;20045;-75
2023/12/09 05:57:41;;;;;;;45.17;24.25;;;7.70;98.70;;;;;;5036642;28;20313;-76
2023/12/09 06:00:10;;;;;;;47.95;24.75;;;7.70;98.70;;;;;;5036866;28;20063;-76
2023/12/09 06:02:35;;;;;;;53.80;25.13;;;7.70;98.60;;;;;;5041156;28;20448;-76
2023/12/09 06:05:01;;;;;;;46.50;24.10;;;7.60;98.60;;;;;;5039416;28;20025;-76
2023/12/09 06:07:26;;;;;;;53.95;24.60;;;7.60;98.60;;;;;;5026911;28;20028;-76
2023/12/09 06:09:52;;;;;;;50.25;23.40;;;7.60;98.70;;;;;;5040160;28;20036;-76
2023/12/09 06:12:18;;;;;;;45.75;23.35;;;7.60;98.70;;;;;;5033693;28;20479;-76
2023/12/09 06:14:43;;;;;;;42.33;21.95;;;7.70;98.60;;;;;;5036262;28;20466;-75
2023/12/09 06:17:09;;;;;;;56.88;23.23;;;7.70;98.70;;;;;;5042456;28;20013;-76
2023/12/09 06:19:34;;;;;;;44.03;23.00;;;7.70;98.70;;;;;;5037001;28;20569;-75
2023/12/09 06:22:00;;;;;;;55.53;24.80;;;7.70;98.70;;;;;;5038664;28;21218;-76
2023/12/09 06:24:26;;;;;;;45.10;22.80;;;7.70;98.70;;;;;;5041221;28;20036;-75
2023/12/09 06:26:51;;;;;;;40.60;20.80;;;7.70;98.70;;;;;;5035713;28;20175;-75
2023/12/09 06:29:17;;;;;;;46.40;20.33;;;7.80;98.70;;;;;;5038168;28;20480;-75
2023/12/09 06:31:42;;;;;;;48.40;20.08;;;7.80;98.60;;;;;;5032741;28;20052;-75
2023/12/09 06:34:08;;;;;;;39.20;19.92;;;7.80;98.70;;;;;;5032944;28;20053;-75
2023/12/09 06:36:34;;;;;;;40.85;20.33;;;7.80;98.60;;;;;;5039638;28;20047;-77
2023/12/09 06:38:59;;;;;;;42.90;19.50;;;7.80;98.60;;;;;;5035793;28;20382;-76
2023/12/09 06:41:25;;;;;;;48.05;18.73;;;7.80;98.60;;;;;;5033891;28;20276;-76
2023/12/09 06:43:50;;;;;;;39.42;18.90;;;7.90;98.50;;;;;;5039139;28;20378;-76
2023/12/09 06:46:16;;;;;;;38.22;17.42;;;7.90;98.50;;;;;;5041761;28;20041;-76
2023/12/09 06:48:42;;;;;;;45.67;18.55;;;7.90;98.50;;;;;;5036291;28;20051;-77
2023/12/09 06:51:17;;;;;;;39.53;19.02;;;7.90;98.50;;;;;;5040700;28;20036;-77
2023/12/09 06:53:43;;;;;;;41.22;19.90;;;7.90;98.60;;;;;;5039739;28;20026;-76
2023/12/09 06:56:20;;;;;;;46.85;20.85;;;8.00;98.60;;;;;;5034276;28;20035;-76
2023/12/09 06:58:46;;;;;;;42.88;19.60;;;7.90;98.50;;;;;;5041695;28;20104;-76
2023/12/09 07:01:22;;;;;;;40.42;19.42;;;8.00;98.60;;;;;;5037571;28;20128;-76
2023/12/09 07:03:49;;;;;;;48.90;19.42;;;8.00;98.50;;;;;;5042503;28;20029;-76
2023/12/09 07:06:28;;;;;;;41.53;17.33;;;7.90;98.60;;;;;;5040023;28;20115;-78
2023/12/09 07:08:54;;;;;;;38.33;17.48;;;8.00;98.60;;;;;;5031823;28;20025;-77
2023/12/09 07:11:22;;;;;;;38.25;15.93;;;8.10;98.60;;;;;;5036009;28;20041;-77
2023/12/09 07:13:48;;;;;;;37.63;15.00;;;8.10;98.50;;;;;;5040792;28;20500;-78
2023/12/09 07:16:13;;;;;;;37.00;16.08;;;8.10;98.50;;;;;;5037359;28;20082;-77
2023/12/09 07:18:43;;;;;;;44.70;14.93;;;8.10;98.50;;;;;;5036059;28;20025;-77
2023/12/09 07:21:13;;;;;;;38.38;15.68;;;8.10;98.50;;;;;;5038948;28;20079;-77
2023/12/09 07:23:38;;;;;;;31.02;13.77;;;8.10;98.50;;;;;;5033938;28;20572;-82
2023/12/09 07:26:04;;;;;;;38.25;14.40;;;8.10;98.50;;;;;;5034401;28;20045;-79
2023/12/09 07:28:29;;;;;;;41.13;15.20;;;8.20;98.50;;;;;;5032203;28;20035;-79
2023/12/09 07:30:55;;;;;;;39.63;15.73;;;8.20;98.30;;;;;;5033291;28;20032;-79
2023/12/09 07:33:21;;;;;;;35.38;14.02;;;8.20;98.30;;;;;;5037273;28;20494;-80
2023/12/09 07:35:47;;;;;;;33.67;14.05;;;8.30;98.20;;;;;;5031308;28;20528;-79
2023/12/09 07:38:13;;;;;;;37.88;13.15;;;8.30;98.20;;;;;;5037803;28;20390;-79
2023/12/09 07:40:38;;;;;;;37.65;13.85;;;8.30;98.10;;;;;;5033336;28;20100;-79
2023/12/09 07:43:04;;;;;;;31.00;13.27;;;8.30;98.10;;;;;;5029543;28;20459;-79
2023/12/09 07:45:30;;;;;;;34.20;12.60;;;8.30;98.00;;;;;;5030704;28;20045;-80
2023/12/09 07:47:56;;;;;;;34.80;12.90;;;8.30;98.00;;;;;;5028812;28;20217;-80
2023/12/09 07:50:22;;;;;;;29.27;11.30;;;8.30;98.00;;;;;;5034028;28;20430;-80
2023/12/09 07:52:47;;;;;;;32.05;12.73;;;8.30;97.90;;;;;;5034590;28;20107;-80
2023/12/09 07:55:13;;;;;;;31.70;13.05;;;8.30;98.00;;;;;;5036064;28;20045;-78
2023/12/09 07:57:38;;;;;;;32.35;13.73;;;8.30;97.90;;;;;;5034666;28;20158;-74
2023/12/09 08:00:05;;;;;;;35.97;13.35;;;8.40;97.80;;;;;;5035026;28;20273;-76
2023/12/09 08:02:31;;;;;;;30.65;11.80;;;8.40;97.70;;;;;;5035711;28;20052;-78
2023/12/09 08:04:56;;;;;;;32.03;11.73;;;8.40;97.70;;;;;;5036899;28;20060;-76
2023/12/09 08:07:22;;;;;;;29.38;11.68;;;8.40;97.60;;;;;;5023974;28;20029;-76
2023/12/09 08:09:47;;;;;;;27.15;11.30;;;8.50;97.50;;;;;;5033643;28;20111;-74
2023/12/09 08:12:13;;;;;;;31.38;11.98;;;8.50;97.50;;;;;;5040182;28;20029;-76
2023/12/09 08:14:39;;;;;;;27.48;11.93;;;8.50;97.40;;;;;;5038545;28;20611;-74
2023/12/09 08:17:04;;;;;;;29.33;12.23;;;8.40;97.50;;;;;;5037708;28;20083;-74
2023/12/09 08:19:30;;;;;;;26.00;12.70;;;8.40;97.50;;;;;;5037908;28;20401;-74
2023/12/09 08:21:56;;;;;;;25.25;11.77;;;8.50;97.60;;;;;;5051098;28;20025;-75
2023/12/09 08:24:22;;;;;;;25.65;10.30;;;8.40;97.60;;;;;;5057328;28;20057;-76
2023/12/09 08:26:47;;;;;;;22.67;10.13;;;8.40;97.60;;;;;;5056795;28;20049;-74
2023/12/09 08:29:14;;;;;;;20.70;10.02;;;8.40;97.70;;;;;;5051666;28;20017;-74
2023/12/09 08:31:40;;;;;;;21.98;9.80;;;8.40;97.80;;;;;;5033175;28;20063;-76
2023/12/09 08:34:06;;;;;;;25.50;10.88;;;8.40;97.80;;;;;;5042706;28;20060;-74
2023/12/09 08:36:32;;;;;;;20.85;9.75;;;8.40;97.90;;;;;;5033912;28;20686;-74
2023/12/09 08:38:58;;;;;;;22.20;9.13;;;8.40;97.90;;;;;;5043820;28;20393;-72
2023/12/09 08:41:24;;;;;;;17.33;8.25;;;8.40;98.00;;;;;;5033502;28;20029;-73
2023/12/09 08:43:52;;;;;;;21.63;8.15;;;8.50;98.00;;;;;;5038091;28;20374;-74
2023/12/09 08:46:18;;;;;;;20.92;8.32;;;8.50;98.00;;;;;;5040316;28;20409;-72
2023/12/09 08:48:44;;;;;;;18.85;7.78;;;8.50;98.00;;;;;;5039042;28;20105;-72
2023/12/09 08:51:10;;;;;;;22.17;8.48;;;8.50;98.00;;;;;;5039772;28;20560;-72
2023/12/09 08:53:36;;;;;;;22.27;9.40;;;8.40;98.00;;;;;;5041500;28;20059;-72
2023/12/09 08:56:02;;;;;;;23.20;9.63;;;8.50;98.10;;;;;;5037472;28;20044;-72
2023/12/09 08:58:28;;;;;;;22.05;9.65;;;8.50;98.10;;;;;;5043446;28;20473;-73
2023/12/09 09:00:54;;;;;;;22.48;8.70;;;8.50;98.10;;;;;;5036564;28;20033;-73
2023/12/09 09:03:20;;;;;;;18.42;8.25;;;8.50;98.10;;;;;;5035763;28;20035;-72
2023/12/09 09:05:45;;;;;;;19.48;8.05;;;8.50;98.20;;;;;;5038071;28;20070;-72
2023/12/09 09:08:11;;;;;;;23.45;7.18;;;8.60;98.10;;;;;;5035872;28;20371;-76
2023/12/09 09:10:37;;;;;;;21.15;7.32;;;8.60;98.10;;;;;;5034884;28;20700;-74
2023/12/09 09:13:02;;;;;;;20.67;7.22;;;8.60;98.10;;;;;;5038250;28;20035;-74
2023/12/09 09:15:28;;;;;;;17.80;6.55;;;8.60;98.00;;;;;;5033450;28;20047;-75
2023/12/09 09:17:54;;;;;;;18.75;6.20;;;8.60;98.00;;;;;;5032681;28;20033;-75
2023/12/09 09:20:19;;;;;;;17.92;6.20;;;8.60;98.10;;;;;;5038705;28;20064;-74
2023/12/09 09:22:46;;;;;;;18.90;6.20;;;8.60;98.00;;;;;;5033107;28;20059;-74
2023/12/09 09:25:12;;;;;;;17.38;5.93;;;8.60;98.00;;;;;;5031781;28;20041;-75
2023/12/09 09:27:38;;;;;;;15.85;4.90;;;8.60;98.00;;;;;;5040142;28;20032;-73
2023/12/09 09:30:05;;;;;;;15.57;4.97;;;8.60;97.90;;;;;;5036126;28;20029;-75
2023/12/09 09:32:31;;;;;;;11.85;4.85;;;8.60;97.90;;;;;;5039927;28;20542;-74
2023/12/09 09:34:56;;;;;;;16.92;5.07;;;8.60;97.90;;;;;;5037051;28;20052;-74
2023/12/09 09:37:23;;;;;;;12.05;4.65;;;8.60;97.80;;;;;;5043945;28;20441;-75
2023/12/09 09:39:48;;;;;;;16.42;5.05;;;8.60;97.70;;;;;;5037411;28;20033;-73
2023/12/09 09:42:29;;;;;;;15.32;4.95;;;8.60;97.70;;;;;;5039397;28;20039;-73
2023/12/09 09:45:09;;;;;;;14.32;4.40;;;8.70;97.80;;;;;;5025334;28;20045;-73
2023/12/09 09:47:39;;;;;;;12.68;4.15;;;8.60;97.80;;;;;;5029982;28;20028;-73
2023/12/09 09:50:07;;;;;;;10.98;3.38;;;8.70;97.90;;;;;;5027028;28;20036;-74
2023/12/09 09:52:36;;;;;;;10.70;3.30;;;8.70;97.90;;;;;;5034788;28;20537;-72
2023/12/09 09:55:06;;;;;;;11.55;3.33;;;8.70;97.80;;;;;;5037305;28;20040;-73
2023/12/09 09:57:35;;;;;;;11.95;3.42;;;8.70;97.90;;;;;;5040718;28;20471;-74
2023/12/09 10:00:06;;;;;;;12.70;3.53;;;8.70;97.90;;;;;;5037686;28;20052;-74
2023/12/09 10:02:36;;;;;;;11.27;3.97;;;8.80;97.90;;;;;;5042469;28;20029;-74
2023/12/09 10:05:03;;;;;;;9.50;2.97;;;8.80;97.90;;;;;;5036685;28;20926;-73
2023/12/09 10:07:29;;;;;;;11.40;3.33;;;8.90;97.90;;;;;;5035076;28;20033;-74
2023/12/09 10:09:55;;;;;;;11.07;3.20;;;8.80;97.80;;;;;;5032415;28;20060;-73
2023/12/09 10:12:20;;;;;;;9.13;3.10;;;8.80;97.70;;;;;;5037965;28;20021;-73
2023/12/09 10:14:46;;;;;;;8.80;2.60;;;8.80;97.70;;;;;;5037822;28;20033;-74
2023/12/09 10:17:13;;;;;;;11.02;2.90;;;8.80;97.60;;;;;;5038794;28;20075;-73
2023/12/09 10:19:39;;;;;;;8.00;3.28;;;8.80;97.60;;;;;;5033395;28;20014;-74
2023/12/09 10:22:04;;;;;;;6.75;2.53;;;8.80;97.70;;;;;;5038142;28;20013;-73
2023/12/09 10:24:30;;;;;;;12.20;3.28;;;8.80;97.70;;;;;;5041859;28;20405;-73
2023/12/09 10:26:56;;;;;;;7.57;2.83;;;8.80;97.60;;;;;;5027490;28;20462;-72
2023/12/09 10:29:24;;;;;;;9.05;2.97;;;8.80;97.50;;;;;;5038441;28;20017;-72
2023/12/09 10:31:50;;;;;;;9.95;2.22;;;8.80;97.50;;;;;;5034312;28;20229;-74
2023/12/09 10:34:17;;;;;;;8.63;2.30;;;8.80;97.50;;;;;;5038368;28;20044;-75
2023/12/09 10:36:43;;;;;;;7.93;2.58;;;8.80;97.50;;;;;;5036643;28;20303;-73
2023/12/09 10:39:09;;;;;;;9.25;2.50;;;8.80;97.60;;;;;;5038283;28;20075;-74
2023/12/09 10:41:35;;;;;;;6.95;2.25;;;8.80;97.60;;;;;;5029695;28;20033;-74
2023/12/09 10:44:02;;;;;;;9.85;2.35;;;8.80;97.70;;;;;;5034107;28;20025;-74
2023/12/09 10:46:28;;;;;;;7.40;2.20;;;8.80;97.70;;;;;;5035062;28;20746;-72
2023/12/09 10:48:54;;;;;;;9.43;2.50;;;8.80;97.70;;;;;;5040242;28;20061;-76
2023/12/09 10:51:20;;;;;;;5.10;2.08;;;8.80;97.80;;;;;;5028920;28;20033;-73
2023/12/09 10:53:46;;;;;;;5.38;2.13;;;8.80;97.90;;;;;;5038963;28;20025;-74
2023/12/09 10:56:12;;;;;;;7.15;2.13;;;8.90;97.90;;;;;;5036871;28;20040;-75
2023/12/09 10:58:40;;;;;;;6.85;2.00;;;8.80;97.90;;;;;;5038159;28;20025;-74
2023/12/09 11:01:07;;;;;;;6.72;2.17;;;8.80;97.90;;;;;;5036676;28;20645;-74
2023/12/09 11:03:34;;;;;;;6.82;2.25;;;8.80;98.00;;;;;;5039139;28;20469;-74
2023/12/09 11:06:01;;;;;;;6.97;2.00;;;8.80;98.10;;;;;;5039660;28;20474;-74
2023/12/09 11:08:28;;;;;;;5.90;2.10;;;8.80;98.10;;;;;;5026036;28;20025;-74
2023/12/09 11:10:55;;;;;;;7.63;2.47;;;8.80;98.20;;;;;;5036416;28;20452;-74
2023/12/09 11:13:24;;;;;;;7.65;1.83;;;8.70;98.20;;;;;;5032224;28;20486;-74
2023/12/09 11:16:08;;;;;;;7.78;1.98;;;8.80;98.20;;;;;;5035921;28;20131;-75
2023/12/09 11:18:34;;;;;;;9.60;2.20;;;8.80;98.10;;;;;;5034497;28;20498;-74
2023/12/09 11:21:02;;;;;;;6.10;1.95;;;8.90;98.10;;;;;;5039131;28;20116;-76
2023/12/09 11:23:28;;;;;;;8.40;2.00;;;8.80;97.90;;;;;;5037861;28;20013;-74
2023/12/09 11:25:53;;;;;;;5.32;2.03;;;8.90;97.90;;;;;;5034450;28;20327;-74
2023/12/09 11:28:20;;;;;;;7.65;2.03;;;8.90;97.80;;;;;;5035157;28;20088;-75
2023/12/09 11:30:46;;;;;;;9.15;2.45;;;9.00;97.80;;;;;;5038040;28;20456;-74
2023/12/09 11:33:12;;;;;;;5.50;2.30;;;9.00;97.70;;;;;;5039325;28;20021;-72
2023/12/09 11:35:38;;;;;;;6.40;2.08;;;9.00;97.60;;;;;;5035643;28;20048;-73
2023/12/09 11:38:07;;;;;;;5.20;1.95;;;9.00;97.60;;;;;;5039773;28;20021;-74
2023/12/09 11:40:33;;;;;;;6.88;1.92;;;9.10;97.50;;;;;;5031981;28;20512;-74
2023/12/09 11:43:00;;;;;;;6.53;2.00;;;9.10;97.50;;;;;;5037663;28;20024;-73
2023/12/09 11:45:29;;;;;;;5.93;2.15;;;9.10;97.50;;;;;;5036641;28;20593;-74
2023/12/09 11:47:57;;;;;;;4.80;1.80;;;9.10;97.50;;;;;;5027516;28;20022;-74
2023/12/09 11:50:22;;;;;;;4.78;1.65;;;9.20;97.60;;;;;;5027633;28;20440;-75
2023/12/09 11:52:49;;;;;;;5.78;2.22;;;9.10;97.70;;;;;;5025345;28;20225;-77
2023/12/09 11:55:17;;;;;;;5.43;2.17;;;9.20;97.80;;;;;;5027608;28;20045;-75
2023/12/09 11:57:43;;;;;;;5.70;1.80;;;9.20;97.80;;;;;;5036585;28;20025;-74
2023/12/09 12:00:13;;;;;;;3.28;1.85;;;9.30;97.80;;;;;;5026238;28;20671;-74
2023/12/09 12:02:45;;;;;;;5.75;1.85;;;9.30;97.80;;;;;;5022439;28;20072;-75
2023/12/09 12:05:11;;;;;;;6.22;2.30;;;9.20;98.00;;;;;;5033962;28;20122;-76
2023/12/09 12:07:37;;;;;;;5.15;1.92;;;9.30;98.10;;;;;;5033064;28;20020;-74
2023/12/09 12:10:07;;;;;;;5.13;1.65;;;9.30;98.10;;;;;;5036204;28;20048;-74
2023/12/09 12:12:33;;;;;;;3.20;1.70;;;9.20;98.20;;;;;;5035956;28;20045;-76
2023/12/09 12:14:59;;;;;;;3.47;1.70;;;9.30;98.30;;;;;;5035159;28;20256;-74
2023/12/09 12:17:24;;;;;;;4.28;2.33;;;9.30;98.20;;;;;;5037166;28;20032;-76
2023/12/09 12:19:50;;;;;;;4.85;2.17;;;9.30;98.20;;;;;;5036075;28;20160;-76
2023/12/09 12:22:18;;;;;;;5.35;2.53;;;9.30;98.20;;;;;;5038387;28;20120;-75
2023/12/09 12:24:45;;;;;;;3.25;2.05;;;9.30;98.30;;;;;;5041015;28;20104;-74
2023/12/09 12:27:11;;;;;;;2.35;1.58;;;9.30;98.30;;;;;;5031052;28;20135;-74
2023/12/09 12:29:38;;;;;;;3.42;1.90;;;9.30;98.30;;;;;;5035449;28;20018;-73
2023/12/09 12:32:05;;;;;;;4.45;1.98;;;9.30;98.50;;;;;;5037567;28;20044;-73
2023/12/09 12:34:31;;;;;;;2.53;1.60;;;9.30;98.40;;;;;;5031069;28;20037;-72
2023/12/09 12:36:57;;;;;;;4.38;2.38;;;9.30;98.50;;;;;;5037609;28;20021;-72
2023/12/09 12:39:23;;;;;;;4.38;2.45;;;9.30;98.60;;;;;;5034295;28;20041;-73